Terminal Aerodrome Forecast
Issued by NWS

Home | Current Version | Previous Version | Text Only | Print | Product List | Glossary Off
Versions: 1 2 3 4 5 6 7 8 9 10 11 12 13 14 15 16 17 18 19 20 21

000
FTUS43 KGRB 261737
TAFRHI
TAF
KRHI 261737Z 2618/2718 29008KT P6SM SCT020 SCT030
      TEMPO 2618/2620 BKN020 BKN030
     FM270200 VRB03KT P6SM FEW050 BKN150
     FM271000 12003KT P6SM SCT025 OVC090
     FM271500 14005KT P6SM VCSH BKN020 BKN040=

USA.gov is the U.S. government's official web portal to all federal, state and local government web resources and services.